Kahuta Weather



Kahuta's Current Weather

Temprature 23.8o scattered clouds

scattered clouds

Rain: 0 %

Min Temprature23.8o
Max Temprature23.8o
Humidity66
Wind Speed0.27 m/h
Sun Rise05:56:56
Sun Set17:58:51
Current Time: 26-Sep-2022 08:22:17
Lat/Lon: 33.5913, 73.3868




Kahuta's Geo Location



Kahuta's Weather Forecast

Time Overall Temp Min Temp Max Temp Humidity Wind Speed Rain
26-Sep-2022 (Mon)
11:00:00 scattered clouds 24.800 24.800 26.800 62 1.85 m/h 0 %
14:00:00 few clouds 27.180 27.180 28.870 55 1.86 m/h 0 %
17:00:00 clear sky 27.990 27.990 27.990 59 1.49 m/h 0 %
20:00:00 clear sky 23.850 23.850 23.850 67 1.36 m/h 0 %
23:00:00 clear sky 22.550 22.550 22.550 72 2.27 m/h 0 %
27-Sep-2022 (Tue)
02:00:00 clear sky 21.700 21.700 21.700 74 2.12 m/h 0 %
05:00:00 clear sky 21.140 21.140 21.140 74 2.22 m/h 0 %
08:00:00 clear sky 24.510 24.510 24.510 64 1.47 m/h 0 %
11:00:00 clear sky 28.080 28.080 28.080 54 1.99 m/h 0 %
14:00:00 clear sky 29.780 29.780 29.780 49 1.76 m/h 0 %
17:00:00 clear sky 28.950 28.950 28.950 56 0.5 m/h 0 %
20:00:00 clear sky 24.770 24.770 24.770 64 1.71 m/h 0 %
23:00:00 clear sky 23.330 23.330 23.330 69 2.47 m/h 0 %
28-Sep-2022 (Wed)
02:00:00 clear sky 22.330 22.330 22.330 73 2.76 m/h 0 %
05:00:00 clear sky 21.770 21.770 21.770 73 2.24 m/h 0 %
08:00:00 clear sky 24.880 24.880 24.880 64 1.82 m/h 0 %
11:00:00 clear sky 28.800 28.800 28.800 54 1.96 m/h 0 %
14:00:00 clear sky 30.400 30.400 30.400 46 1.86 m/h 0 %
17:00:00 clear sky 29.250 29.250 29.250 55 1.15 m/h 0 %
20:00:00 clear sky 25.180 25.180 25.180 62 1.7 m/h 0 %
23:00:00 clear sky 23.510 23.510 23.510 66 2.7 m/h 0 %
29-Sep-2022 (Thu)
02:00:00 clear sky 22.180 22.180 22.180 65 3.28 m/h 0 %
05:00:00 light rain 21.320 21.320 21.320 66 2.42 m/h 33 %
08:00:00 light rain 23.810 23.810 23.810 62 2.23 m/h 170 %
11:00:00 light rain 28.730 28.730 28.730 48 0.82 m/h 53 %
14:00:00 clear sky 30.530 30.530 30.530 43 2.07 m/h 0 %
17:00:00 clear sky 29.320 29.320 29.320 53 0.46 m/h 0 %
20:00:00 clear sky 25.110 25.110 25.110 59 2.29 m/h 0 %
23:00:00 light rain 23.160 23.160 23.160 65 2.85 m/h 18 %
30-Sep-2022 (Fri)
02:00:00 clear sky 22.160 22.160 22.160 64 3.24 m/h 0 %
05:00:00 clear sky 21.740 21.740 21.740 62 1.84 m/h 0 %
08:00:00 few clouds 24.830 24.830 24.830 56 2.35 m/h 0 %
11:00:00 clear sky 29.630 29.630 29.630 44 1.27 m/h 0 %
14:00:00 clear sky 31.240 31.240 31.240 40 2.49 m/h 0 %
17:00:00 clear sky 29.500 29.500 29.500 50 0.39 m/h 0 %
20:00:00 clear sky 25.280 25.280 25.280 55 2.21 m/h 0 %
23:00:00 clear sky 23.600 23.600 23.600 61 3.24 m/h 0 %
01-Oct-2022 (Sat)
02:00:00 clear sky 22.650 22.650 22.650 62 3.4 m/h 0 %
05:00:00 clear sky 21.960 21.960 21.960 62 2.26 m/h 0 %
08:00:00 clear sky 25.420 25.420 25.420 55 2.42 m/h 0 %

Famous Cities (61)